createdAt,value
2023-03-12T00:02:14.945Z,85.50
2023-03-12T00:12:36.335Z,85.21
2023-03-12T00:22:57.769Z,85.69
2023-03-12T00:33:19.114Z,84.84
2023-03-12T00:43:40.500Z,85.79
2023-03-12T00:54:01.867Z,85.71
2023-03-12T01:04:23.284Z,86.25
2023-03-12T01:14:44.770Z,86.30
2023-03-12T01:25:06.801Z,86.61
2023-03-12T01:35:28.264Z,86.09
2023-03-12T01:45:58.877Z,87.04
2023-03-12T01:56:20.669Z,86.70
2023-03-12T02:07:00.849Z,86.71
2023-03-12T02:17:22.246Z,86.91
2023-03-12T02:27:43.699Z,87.84
2023-03-12T02:38:25.004Z,88.17
2023-03-12T02:48:46.553Z,87.48
2023-03-12T02:59:08.438Z,88.44
2023-03-12T03:09:29.835Z,88.46
2023-03-12T03:19:51.807Z,88.46
2023-03-12T03:30:13.210Z,89.80
2023-03-12T03:40:34.560Z,89.56
2023-03-12T03:50:59.983Z,89.40
2023-03-12T04:01:21.388Z,89.05
2023-03-12T04:11:42.757Z,89.16
2023-03-12T04:22:04.209Z,88.82
2023-03-12T04:32:26.020Z,89.09
2023-03-12T04:42:47.899Z,89.54
2023-03-12T04:53:09.328Z,89.26
2023-03-12T05:03:30.764Z,90.03
2023-03-12T05:13:52.133Z,89.31
2023-03-12T05:24:13.508Z,89.29
2023-03-12T05:34:35.617Z,88.17
2023-03-12T05:44:56.962Z,88.57
2023-03-12T05:55:18.533Z,87.82
2023-03-12T06:05:39.965Z,88.15
2023-03-12T06:16:09.104Z,87.15
2023-03-12T06:26:30.745Z,86.90
2023-03-12T06:36:52.159Z,85.72
2023-03-12T06:47:14.026Z,86.80
2023-03-12T06:57:36.760Z,84.66
2023-03-12T07:07:58.147Z,83.70
2023-03-12T07:18:19.493Z,82.24
2023-03-12T07:28:40.874Z,83.33
2023-03-12T07:39:02.346Z,82.25
2023-03-12T07:49:23.701Z,83.10
2023-03-12T07:59:45.134Z,81.89
2023-03-12T08:10:07.667Z,80.88
2023-03-12T08:20:29.338Z,78.66
2023-03-12T08:30:52.129Z,79.20
2023-03-12T08:41:13.543Z,78.72
2023-03-12T08:51:34.892Z,78.12
2023-03-12T09:01:56.236Z,77.26
2023-03-12T09:12:17.633Z,76.32
2023-03-12T09:22:38.997Z,75.04
2023-03-12T09:33:00.418Z,74.87
2023-03-12T09:43:32.636Z,74.61
2023-03-12T09:53:56.163Z,76.15
2023-03-12T10:04:23.680Z,76.33
2023-03-12T10:14:45.120Z,76.35
2023-03-12T10:25:27.072Z,77.06
2023-03-12T10:35:49.605Z,77.25
2023-03-12T10:46:30.447Z,79.11
2023-03-12T10:56:52.669Z,80.89
2023-03-12T11:07:17.077Z,82.62
2023-03-12T11:17:38.454Z,84.33
2023-03-12T11:28:00.848Z,85.01
2023-03-12T11:38:36.324Z,87.22
2023-03-12T11:49:11.637Z,88.09
2023-03-12T11:59:56.010Z,89.79
2023-03-12T12:10:37.615Z,91.16
2023-03-12T12:21:06.085Z,92.33
2023-03-12T12:31:30.898Z,92.80
2023-03-12T12:41:54.712Z,93.25
2023-03-12T12:52:19.940Z,94.63
2023-03-12T13:02:42.874Z,94.41
2023-03-12T13:13:07.219Z,93.70
2023-03-12T13:23:31.585Z,94.14
2023-03-12T13:34:13.206Z,94.91
2023-03-12T13:44:38.946Z,94.51
2023-03-12T13:55:09.083Z,95.47
2023-03-12T14:05:33.055Z,95.45
2023-03-12T14:16:01.794Z,97.12
2023-03-12T14:26:25.042Z,96.28
2023-03-12T14:36:55.690Z,97.39
2023-03-12T14:47:17.769Z,97.92
2023-03-12T14:57:39.134Z,98.68
2023-03-12T15:08:03.130Z,98.86
2023-03-12T15:18:26.220Z,99.15
2023-03-12T15:28:59.972Z,100.00
2023-03-12T15:39:26.421Z,99.08
2023-03-12T15:49:53.448Z,100.00
2023-03-12T16:00:15.052Z,100.00
2023-03-12T16:10:37.968Z,99.67
2023-03-12T16:20:59.329Z,100.00
2023-03-12T16:31:20.813Z,100.00
2023-03-12T16:41:42.638Z,100.00
2023-03-12T16:52:24.356Z,100.00
2023-03-12T17:02:45.834Z,100.00
2023-03-12T17:13:07.183Z,100.00
2023-03-12T17:23:28.572Z,100.00
2023-03-12T17:33:50.214Z,100.00
2023-03-12T17:44:13.705Z,99.93
2023-03-12T17:54:36.071Z,100.00
2023-03-12T18:04:58.553Z,100.00
2023-03-12T18:15:20.040Z,100.00
2023-03-12T18:25:41.379Z,99.66
2023-03-12T18:36:03.843Z,99.78
2023-03-12T18:46:25.600Z,100.00
2023-03-12T18:56:47.105Z,99.32
2023-03-12T19:07:08.570Z,98.06
2023-03-12T19:17:30.796Z,96.84
2023-03-12T19:27:52.147Z,96.06
2023-03-12T19:38:13.558Z,96.50
2023-03-12T19:48:34.967Z,95.31
2023-03-12T19:58:56.371Z,96.25
2023-03-12T20:09:17.759Z,95.19
2023-03-12T20:19:39.434Z,95.33
2023-03-12T20:30:00.950Z,96.21
2023-03-12T20:40:22.309Z,96.62
2023-03-12T20:50:43.845Z,95.85
2023-03-12T21:01:05.984Z,95.55
2023-03-12T21:11:27.395Z,96.03
2023-03-12T21:21:48.747Z,94.32
2023-03-12T21:32:10.133Z,94.11
2023-03-12T21:42:32.937Z,93.31
2023-03-12T21:52:54.294Z,93.50
2023-03-12T22:03:17.309Z,93.71
2023-03-12T22:13:38.718Z,93.52
2023-03-12T22:24:00.737Z,93.69
2023-03-12T22:34:22.076Z,93.92
2023-03-12T22:44:43.432Z,92.94
2023-03-12T22:55:05.021Z,93.78
2023-03-12T23:05:26.417Z,93.62
2023-03-12T23:15:48.016Z,92.97
2023-03-12T23:26:17.384Z,92.74
2023-03-12T23:36:38.739Z,93.12
2023-03-12T23:47:00.152Z,92.34
2023-03-12T23:57:21.526Z,93.19
